Time;durP1;ratioP1;P1;durP2;ratioP2;P2;SDS_P1;SDS_P2;PMS_P1;PMS_P2;Temp;Humidity;BMP_temperature;BMP_pressure;BME280_temperature;BME280_humidity;BME280_pressure;Samples;Min_cycle;Max_cycle;Signal;HPM_P1;HPM_P2
2022/12/08 00:02:43;;;;;;;1089.32;94.68;;;7.00;99.90;;;;;;5056171;28;20052;-72
2022/12/08 00:09:21;;;;;;;174.73;28.23;;;7.10;99.90;;;;;;5053037;28;20040;-71
2022/12/08 00:12:25;;;;;;;209.82;30.17;;;7.10;99.90;;;;;;5051792;28;20518;-71
2022/12/08 00:15:29;;;;;;;229.85;31.80;;;7.10;99.90;;;;;;5052423;28;20052;-71
2022/12/08 00:18:34;;;;;;;78.97;20.88;;;7.10;99.90;;;;;;5052710;28;20052;-71
2022/12/08 00:21:38;;;;;;;75.35;21.80;;;7.10;99.90;;;;;;5052994;28;20051;-71
2022/12/08 00:24:44;;;;;;;518.25;46.67;;;7.20;99.90;;;;;;5052081;28;20059;-71
2022/12/08 00:27:48;;;;;;;372.83;40.50;;;7.20;99.90;;;;;;5052735;28;20056;-71
2022/12/08 00:30:52;;;;;;;271.45;28.55;;;7.20;99.90;;;;;;5052752;28;20040;-72
2022/12/08 00:33:58;;;;;;;54.95;18.45;;;7.30;99.90;;;;;;5052237;28;20040;-71
2022/12/08 00:37:02;;;;;;;40.30;16.85;;;7.20;99.90;;;;;;5052603;28;20051;-72
2022/12/08 00:40:07;;;;;;;24.42;15.70;;;7.10;99.90;;;;;;5052761;28;20044;-71
2022/12/08 00:43:12;;;;;;;26.38;15.73;;;7.00;99.90;;;;;;5052167;28;20522;-71
2022/12/08 00:46:15;;;;;;;47.80;17.38;;;7.00;99.90;;;;;;5052370;28;20502;-71
2022/12/08 00:49:20;;;;;;;41.83;16.70;;;7.00;99.90;;;;;;5052693;28;20126;-71
2022/12/08 00:52:24;;;;;;;325.33;33.25;;;7.00;99.90;;;;;;5052200;28;20060;-71
2022/12/08 00:55:28;;;;;;;39.60;19.15;;;6.90;99.90;;;;;;5051881;28;20423;-72
2022/12/08 00:58:32;;;;;;;50.53;21.40;;;6.90;99.90;;;;;;5062561;28;20055;-72
2022/12/08 01:01:37;;;;;;;33.70;19.25;;;6.90;99.90;;;;;;5052256;28;20052;-71
2022/12/08 01:04:41;;;;;;;37.78;19.98;;;6.90;99.90;;;;;;5051361;28;20052;-72
2022/12/08 01:07:47;;;;;;;57.92;20.73;;;6.90;99.90;;;;;;5052022;28;20051;-71
2022/12/08 01:10:51;;;;;;;54.08;21.25;;;6.90;99.90;;;;;;5052009;28;20052;-72
2022/12/08 01:13:55;;;;;;;34.97;19.92;;;7.00;99.90;;;;;;5050531;28;20048;-71
2022/12/08 01:16:59;;;;;;;33.88;20.38;;;7.00;99.90;;;;;;5051289;28;20044;-71
2022/12/08 01:20:05;;;;;;;35.78;21.05;;;7.10;99.90;;;;;;5051873;28;20048;-71
2022/12/08 01:23:09;;;;;;;40.42;21.75;;;7.20;99.90;;;;;;5051285;28;20511;-71
2022/12/08 01:26:16;;;;;;;37.83;23.15;;;7.30;99.90;;;;;;5051359;28;20047;-71
2022/12/08 01:29:20;;;;;;;40.28;24.45;;;7.40;99.90;;;;;;5050764;28;20052;-71
2022/12/08 01:32:24;;;;;;;39.70;25.65;;;7.40;99.90;;;;;;5051629;28;20051;-72
2022/12/08 01:35:28;;;;;;;39.40;20.95;;;7.40;99.90;;;;;;5050842;28;20048;-71
2022/12/08 01:38:33;;;;;;;349.98;34.58;;;7.30;99.90;;;;;;5051512;28;20418;-72
2022/12/08 01:41:37;;;;;;;400.30;37.90;;;7.20;99.90;;;;;;5051193;28;20047;-72
2022/12/08 01:44:41;;;;;;;362.30;32.65;;;7.10;99.90;;;;;;5050397;28;20048;-72
2022/12/08 01:47:51;;;;;;;735.72;54.72;;;7.00;99.90;;;;;;5050988;28;20594;-72
2022/12/08 01:50:57;;;;;;;324.55;37.20;;;6.80;99.90;;;;;;5050902;28;20044;-71
2022/12/08 01:54:04;;;;;;;142.05;22.48;;;6.70;99.90;;;;;;5050346;28;20052;-71
2022/12/08 01:57:26;;;;;;;303.70;27.35;;;6.70;99.90;;;;;;5050975;28;20068;-72
2022/12/08 02:00:30;;;;;;;23.17;14.15;;;6.80;99.90;;;;;;5049955;28;20063;-72
2022/12/08 02:03:48;;;;;;;534.38;45.35;;;6.80;99.90;;;;;;5050299;28;20035;-71
2022/12/08 02:06:53;;;;;;;175.63;22.85;;;6.80;99.90;;;;;;5050646;28;20052;-72
2022/12/08 02:09:57;;;;;;;31.50;16.92;;;6.80;99.90;;;;;;5050843;28;20047;-72
2022/12/08 02:13:04;;;;;;;123.32;23.25;;;6.90;99.90;;;;;;5050757;28;20048;-72
2022/12/08 02:16:21;;;;;;;296.92;32.55;;;7.00;99.90;;;;;;5050475;28;20048;-72
2022/12/08 02:19:44;;;;;;;27.33;15.23;;;7.00;99.90;;;;;;5050511;28;20044;-71
2022/12/08 02:22:59;;;;;;;121.47;19.92;;;7.00;99.90;;;;;;5050860;28;20067;-72
2022/12/08 02:26:31;;;;;;;119.95;18.42;;;7.00;99.90;;;;;;5048406;28;20287;-72
2022/12/08 02:29:38;;;;;;;;;;;7.00;99.90;;;;;;5051269;28;20407;-72
2022/12/08 02:33:09;;;;;;;147.95;21.02;;;6.90;99.90;;;;;;5050548;28;19920;-72
2022/12/08 02:36:22;;;;;;;195.07;24.17;;;6.80;99.90;;;;;;5050580;28;20478;-72
2022/12/08 02:39:54;;;;;;;347.35;31.35;;;6.80;99.90;;;;;;5050611;28;20064;-72
2022/12/08 02:43:37;;;;;;;90.60;20.42;;;6.80;99.90;;;;;;5050563;28;20040;-72
2022/12/08 02:46:50;;;;;;;79.50;18.55;;;6.80;99.90;;;;;;5050665;28;20040;-72
2022/12/08 02:49:56;;;;;;;115.55;17.42;;;6.80;99.90;;;;;;5050301;28;20040;-72
2022/12/08 02:53:01;;;;;;;55.53;15.20;;;6.70;99.90;;;;;;5050588;28;20056;-72
2022/12/08 02:56:30;;;;;;;25.63;13.85;;;6.70;99.90;;;;;;5050186;28;20423;-72
2022/12/08 02:59:55;;;;;;;51.67;18.42;;;6.70;99.90;;;;;;5050103;28;20040;-72
2022/12/08 03:03:16;;;;;;;33.80;14.75;;;6.60;99.90;;;;;;5050289;28;20518;-72
2022/12/08 03:06:29;;;;;;;85.50;24.33;;;6.70;99.90;;;;;;5049687;28;20040;-72
2022/12/08 03:09:39;;;;;;;;;;;6.80;99.90;;;;;;5061246;28;20044;-71
2022/12/08 03:12:51;;;;;;;49.72;17.85;;;6.80;99.90;;;;;;5050257;28;19916;-71
2022/12/08 03:15:55;;;;;;;26.65;16.95;;;6.80;99.90;;;;;;5050071;28;20059;-72
2022/12/08 03:19:09;;;;;;;35.22;18.38;;;6.90;99.90;;;;;;5050104;28;20056;-72
2022/12/08 03:22:18;;;;;;;26.05;17.50;;;7.00;99.90;;;;;;5050340;28;20040;-72
2022/12/08 03:25:24;;;;;;;24.38;16.05;;;7.10;99.90;;;;;;5049501;28;20400;-72
2022/12/08 03:28:29;;;;;;;27.65;17.17;;;7.10;99.90;;;;;;5050064;28;20040;-72
2022/12/08 03:31:39;;;;;;;24.05;15.65;;;7.20;99.90;;;;;;5049791;28;20491;-72
2022/12/08 03:34:47;;;;;;;32.58;20.88;;;7.10;99.90;;;;;;5049665;28;20038;-72
2022/12/08 03:37:51;;;;;;;31.70;20.50;;;7.10;99.90;;;;;;5049673;28;20048;-72
2022/12/08 03:44:19;;;;;;;27.08;17.45;;;7.10;99.90;;;;;;5053082;28;20036;-72
2022/12/08 03:47:23;;;;;;;27.88;18.33;;;7.20;99.90;;;;;;5053466;28;20051;-72
2022/12/08 03:50:28;;;;;;;28.65;18.83;;;7.20;99.90;;;;;;5053100;28;20044;-72
2022/12/08 03:53:32;;;;;;;29.00;18.25;;;7.20;99.90;;;;;;5053239;28;20076;-72
2022/12/08 03:56:38;;;;;;;25.77;16.60;;;7.10;99.90;;;;;;5053244;28;20056;-72
2022/12/08 03:59:42;;;;;;;676.60;49.17;;;7.00;99.90;;;;;;5053409;28;20499;-72
2022/12/08 04:02:48;;;;;;;779.33;56.75;;;6.90;99.90;;;;;;5053236;28;20048;-72
2022/12/08 04:05:52;;;;;;;426.10;37.03;;;6.70;99.90;;;;;;5053043;28;20052;-72
2022/12/08 04:08:56;;;;;;;867.30;70.13;;;6.70;99.90;;;;;;5053119;28;20048;-72
2022/12/08 04:12:00;;;;;;;502.60;41.47;;;6.70;99.90;;;;;;5053270;28;20083;-72
2022/12/08 04:15:05;;;;;;;816.72;53.28;;;6.70;99.90;;;;;;5053116;28;20044;-72
2022/12/08 04:18:09;;;;;;;969.10;68.80;;;6.50;99.90;;;;;;5053246;28;20048;-71
2022/12/08 04:21:13;;;;;;;523.50;51.75;;;6.40;99.90;;;;;;5053226;28;20060;-71
2022/12/08 04:24:17;;;;;;;477.40;39.80;;;6.40;99.90;;;;;;5052848;28;20044;-72
2022/12/08 04:27:21;;;;;;;70.05;16.02;;;6.40;99.90;;;;;;5052949;28;20048;-71
2022/12/08 04:30:26;;;;;;;98.78;19.50;;;6.50;99.90;;;;;;5052666;28;20052;-72
2022/12/08 04:33:30;;;;;;;861.17;62.95;;;6.50;99.90;;;;;;5052455;28;20341;-72
2022/12/08 04:36:35;;;;;;;659.70;46.25;;;6.60;99.90;;;;;;5052585;28;20052;-72
2022/12/08 04:39:39;;;;;;;838.65;57.20;;;6.60;99.90;;;;;;5052698;28;20060;-72
2022/12/08 04:42:43;;;;;;;536.47;46.25;;;6.50;99.90;;;;;;5052742;28;20391;-72
2022/12/08 04:45:48;;;;;;;843.58;72.05;;;6.50;99.90;;;;;;5052419;28;20055;-71
2022/12/08 04:48:52;;;;;;;830.75;58.33;;;6.60;99.90;;;;;;5052443;28;20056;-72
2022/12/08 04:51:56;;;;;;;699.38;57.20;;;6.60;99.90;;;;;;5051263;28;20036;-72
2022/12/08 04:55:00;;;;;;;245.75;25.48;;;6.40;99.90;;;;;;5052453;28;20055;-71
2022/12/08 04:58:03;;;;;;;211.77;21.65;;;6.50;99.90;;;;;;5052453;28;20063;-71
2022/12/08 05:01:08;;;;;;;67.30;15.38;;;6.50;99.90;;;;;;5052302;28;20044;-71
2022/12/08 05:04:11;;;;;;;230.27;22.02;;;6.40;99.90;;;;;;5052032;28;20051;-72
2022/12/08 05:07:15;;;;;;;59.83;15.18;;;6.40;99.90;;;;;;5052116;28;20060;-72
2022/12/08 05:10:19;;;;;;;325.50;30.13;;;6.40;99.90;;;;;;5052344;28;20052;-72
2022/12/08 05:13:23;;;;;;;91.45;19.20;;;6.40;99.90;;;;;;5051710;28;20040;-72
2022/12/08 05:16:28;;;;;;;45.72;14.55;;;6.40;99.90;;;;;;5051916;28;20397;-72
2022/12/08 05:19:32;;;;;;;66.28;14.45;;;6.30;99.90;;;;;;5051761;28;20048;-72
2022/12/08 05:22:35;;;;;;;367.77;28.63;;;6.30;99.90;;;;;;5052019;28;20048;-72
2022/12/08 05:25:39;;;;;;;287.08;23.50;;;6.20;99.90;;;;;;5051898;28;20048;-72
2022/12/08 05:28:43;;;;;;;24.05;12.43;;;6.10;99.90;;;;;;5051976;28;20055;-72
2022/12/08 05:31:47;;;;;;;100.28;16.98;;;6.10;99.90;;;;;;5051584;28;20383;-72
2022/12/08 05:34:51;;;;;;;705.97;62.13;;;6.20;99.90;;;;;;5051478;28;20056;-71
2022/12/08 05:37:55;;;;;;;53.03;15.43;;;6.30;99.90;;;;;;5051405;28;20388;-71
2022/12/08 05:41:00;;;;;;;530.03;48.67;;;6.30;99.90;;;;;;5051584;28;20055;-72
2022/12/08 05:44:05;;;;;;;246.68;23.77;;;6.40;99.90;;;;;;5051259;28;20494;-72
2022/12/08 05:47:10;;;;;;;220.82;24.92;;;6.40;99.90;;;;;;5050682;28;20395;-72
2022/12/08 05:50:14;;;;;;;28.75;14.32;;;6.30;99.90;;;;;;5051204;28;20511;-71
2022/12/08 05:53:19;;;;;;;95.18;19.00;;;6.30;99.90;;;;;;5050713;28;20060;-72
2022/12/08 05:56:24;;;;;;;97.43;17.45;;;6.30;99.90;;;;;;5051104;28;20040;-72
2022/12/08 05:59:27;;;;;;;86.03;17.77;;;6.30;99.90;;;;;;5050953;28;20044;-72
2022/12/08 06:02:31;;;;;;;80.07;19.33;;;6.20;99.90;;;;;;5050342;28;20048;-72
2022/12/08 06:05:35;;;;;;;265.90;27.73;;;6.20;99.90;;;;;;5050742;28;20051;-72
2022/12/08 06:08:40;;;;;;;25.60;14.55;;;6.10;99.90;;;;;;5051005;28;20059;-71
2022/12/08 06:11:46;;;;;;;84.57;19.02;;;6.10;99.90;;;;;;5051123;28;20384;-72
2022/12/08 06:14:50;;;;;;;107.05;20.42;;;6.20;99.90;;;;;;5049500;28;20039;-72
2022/12/08 06:17:54;;;;;;;35.88;13.90;;;6.10;99.90;;;;;;5050543;28;20051;-72
2022/12/08 06:21:04;;;;;;;41.90;15.40;;;6.10;99.90;;;;;;5061300;28;20056;-72
2022/12/08 06:24:08;;;;;;;25.70;13.70;;;6.10;99.90;;;;;;5050090;28;20044;-72
2022/12/08 06:27:12;;;;;;;47.47;16.88;;;6.10;99.90;;;;;;5050335;28;20052;-72
2022/12/08 06:30:17;;;;;;;34.35;13.65;;;6.10;99.90;;;;;;5050343;28;20086;-72
2022/12/08 06:33:21;;;;;;;20.92;13.18;;;6.00;99.90;;;;;;5049993;28;20396;-72
2022/12/08 06:36:27;;;;;;;78.30;15.85;;;6.10;99.90;;;;;;5050272;28;20060;-72
2022/12/08 06:39:31;;;;;;;41.60;14.82;;;6.10;99.90;;;;;;5049916;28;20052;-72
2022/12/08 06:42:44;;;;;;;92.38;19.45;;;6.10;99.90;;;;;;5049280;28;20399;-72
2022/12/08 06:45:49;;;;;;;151.70;22.85;;;6.20;99.90;;;;;;5050305;28;20048;-72
2022/12/08 06:48:53;;;;;;;252.50;25.10;;;6.20;99.90;;;;;;5049841;28;20055;-72
2022/12/08 06:51:57;;;;;;;316.80;27.80;;;6.10;99.90;;;;;;5050283;28;20040;-72
2022/12/08 06:55:02;;;;;;;24.67;13.23;;;6.10;99.90;;;;;;5049910;28;20052;-72
2022/12/08 06:58:06;;;;;;;349.20;27.60;;;6.10;99.90;;;;;;5049617;28;20395;-72
2022/12/08 07:01:13;;;;;;;85.60;16.42;;;6.00;99.90;;;;;;5050087;28;20043;-72
2022/12/08 07:04:17;;;;;;;110.53;17.65;;;6.00;99.90;;;;;;5049773;28;20115;-72
2022/12/08 07:07:21;;;;;;;124.30;19.23;;;6.10;99.90;;;;;;5050031;28;20044;-72
2022/12/08 07:10:25;;;;;;;199.70;23.02;;;6.10;99.90;;;;;;5060649;28;20055;-72
2022/12/08 07:13:29;;;;;;;446.70;38.63;;;6.10;99.90;;;;;;5050405;28;20051;-72
2022/12/08 07:16:33;;;;;;;170.35;22.65;;;6.00;99.90;;;;;;5054154;28;20044;-72
2022/12/08 07:19:37;;;;;;;175.68;22.75;;;6.00;99.90;;;;;;5053571;28;20048;-72
2022/12/08 07:22:50;;;;;;;164.38;23.65;;;6.20;99.90;;;;;;5054018;28;20052;-72
2022/12/08 07:25:54;;;;;;;23.50;14.50;;;6.40;99.90;;;;;;5053866;28;20044;-72
2022/12/08 07:28:59;;;;;;;487.77;39.08;;;6.30;99.90;;;;;;5053509;28;20499;-72
2022/12/08 07:32:06;;;;;;;28.23;16.17;;;6.40;99.90;;;;;;5053940;28;20056;-71
2022/12/08 07:35:10;;;;;;;25.00;16.00;;;6.50;99.90;;;;;;5053183;28;20051;-72
2022/12/08 07:38:14;;;;;;;48.67;16.35;;;6.60;99.90;;;;;;5053382;28;20048;-72
2022/12/08 07:41:22;;;;;;;21.70;14.02;;;6.70;99.90;;;;;;5053879;28;20048;-72
2022/12/08 07:44:26;;;;;;;270.67;26.17;;;6.80;99.90;;;;;;5053481;28;20391;-72
2022/12/08 07:47:33;;;;;;;341.48;31.00;;;6.70;99.90;;;;;;5052675;28;20039;-72
2022/12/08 07:50:37;;;;;;;120.10;19.88;;;6.40;99.90;;;;;;5053742;28;20036;-72
2022/12/08 07:53:44;;;;;;;135.60;20.77;;;6.40;99.90;;;;;;5053434;28;20052;-72
2022/12/08 07:56:48;;;;;;;90.93;16.98;;;6.40;99.90;;;;;;5054550;28;20048;-71
2022/12/08 07:59:52;;;;;;;151.20;19.50;;;6.50;99.90;;;;;;5053143;28;20708;-72
2022/12/08 08:02:56;;;;;;;24.35;13.55;;;6.60;99.90;;;;;;5053287;28;20068;-71
2022/12/08 08:06:02;;;;;;;139.45;18.02;;;6.50;99.90;;;;;;5053096;28;20430;-72
2022/12/08 08:09:07;;;;;;;56.15;14.88;;;6.70;99.90;;;;;;5053057;28;20047;-72
2022/12/08 08:12:11;;;;;;;44.58;12.15;;;6.90;99.90;;;;;;5052845;28;20055;-72
2022/12/08 08:15:16;;;;;;;114.82;15.50;;;7.20;99.90;;;;;;5052356;28;20048;-72
2022/12/08 08:18:21;;;;;;;192.88;19.27;;;7.40;99.90;;;;;;5063469;28;20495;-72
2022/12/08 08:21:25;;;;;;;40.88;10.52;;;7.70;99.90;;;;;;5053004;28;20060;-72
2022/12/08 08:24:29;;;;;;;94.25;14.25;;;8.30;99.90;;;;;;5051853;28;20052;-72
2022/12/08 08:27:33;;;;;;;178.30;15.65;;;9.10;99.90;;;;;;5062340;28;20063;-72
2022/12/08 08:30:37;;;;;;;256.60;17.77;;;9.20;99.90;;;;;;5052405;28;20499;-72
2022/12/08 08:33:47;;;;;;;57.88;14.55;;;9.30;99.90;;;;;;5051872;28;20498;-72
2022/12/08 08:36:51;;;;;;;247.80;18.05;;;9.50;99.90;;;;;;5052656;28;20411;-72
2022/12/08 08:39:55;;;;;;;99.97;23.95;;;9.50;99.90;;;;;;5052130;28;20280;-72
2022/12/08 08:43:01;;;;;;;130.60;16.05;;;9.30;99.90;;;;;;5052651;28;20056;-72
2022/12/08 08:46:07;;;;;;;402.67;26.63;;;9.10;99.90;;;;;;5052248;28;20064;-72
2022/12/08 08:49:14;;;;;;;169.10;20.38;;;8.80;99.90;;;;;;5052232;28;20044;-72
2022/12/08 08:52:18;;;;;;;129.63;17.88;;;8.50;99.90;;;;;;5051624;28;20384;-72
2022/12/08 08:55:23;;;;;;;449.00;28.83;;;8.70;99.90;;;;;;5052090;28;20503;-72
2022/12/08 08:58:27;;;;;;;386.42;27.45;;;9.10;99.90;;;;;;5052201;28;20043;-71
2022/12/08 09:01:32;;;;;;;38.42;14.02;;;8.90;99.90;;;;;;5051351;28;20400;-71
2022/12/08 09:04:37;;;;;;;279.30;28.05;;;8.60;99.90;;;;;;5051891;28;20052;-71
2022/12/08 09:07:42;;;;;;;321.95;23.15;;;9.10;99.90;;;;;;5051921;28;20214;-72
2022/12/08 09:10:46;;;;;;;357.05;25.45;;;9.00;99.90;;;;;;5051752;28;20582;-72
2022/12/08 09:13:52;;;;;;;297.05;24.17;;;9.20;99.90;;;;;;5051450;28;20044;-72
2022/12/08 09:16:57;;;;;;;208.95;21.58;;;8.80;99.90;;;;;;5052078;28;20056;-72
2022/12/08 09:20:01;;;;;;;75.13;16.92;;;9.30;99.90;;;;;;5051675;28;20051;-72
2022/12/08 09:23:05;;;;;;;60.80;16.42;;;9.70;99.90;;;;;;5052038;28;20403;-72
2022/12/08 09:26:09;;;;;;;19.27;12.43;;;10.40;99.90;;;;;;5052137;28;20052;-72
2022/12/08 09:29:14;;;;;;;74.32;15.55;;;10.60;99.90;;;;;;5052032;28;20044;-72
2022/12/08 09:32:17;;;;;;;80.65;15.48;;;11.00;99.90;;;;;;5051671;28;20146;-72
2022/12/08 09:35:23;;;;;;;55.70;13.85;;;11.70;99.90;;;;;;5051060;28;20056;-72
2022/12/08 09:38:27;;;;;;;205.57;21.83;;;11.90;99.90;;;;;;5051245;28;20048;-72
2022/12/08 09:41:32;;;;;;;176.73;22.50;;;10.70;99.90;;;;;;5050965;28;20483;-73
2022/12/08 09:44:56;;;;;;;320.52;26.13;;;10.30;99.90;;;;;;5060826;28;20069;-72
2022/12/08 09:48:04;;;;;;;124.45;19.17;;;9.70;99.90;;;;;;5051197;28;20048;-72
2022/12/08 09:51:12;;;;;;;38.80;17.48;;;9.90;99.90;;;;;;5050850;28;20384;-72
2022/12/08 09:54:30;;;;;;;95.03;15.63;;;10.60;99.90;;;;;;5061179;28;20498;-72
2022/12/08 09:57:36;;;;;;;284.23;24.00;;;10.90;99.90;;;;;;5050958;28;20550;-72
2022/12/08 10:00:43;;;;;;;136.23;27.20;;;10.40;99.90;;;;;;5050560;28;20530;-72
2022/12/08 10:03:49;;;;;;;41.72;17.50;;;10.50;99.90;;;;;;5060778;28;20060;-72
2022/12/08 10:07:01;;;;;;;96.78;18.70;;;10.50;99.90;;;;;;5050623;28;20044;-72
2022/12/08 10:10:34;;;;;;;44.38;17.08;;;10.40;99.90;;;;;;5050331;28;20057;-72
2022/12/08 10:13:57;;;;;;;159.88;21.73;;;10.70;99.90;;;;;;5049957;28;20095;-72
2022/12/08 10:17:26;;;;;;;38.00;16.80;;;11.00;99.90;;;;;;5049878;28;20048;-72
2022/12/08 10:20:37;;;;;;;46.00;17.25;;;11.00;99.90;;;;;;5050364;28;20043;-72
2022/12/08 10:23:46;;;;;;;47.67;18.77;;;11.00;99.90;;;;;;5050202;28;20064;-72
2022/12/08 10:26:50;;;;;;;96.43;20.48;;;11.00;99.90;;;;;;5050477;28;20047;-72
2022/12/08 10:29:54;;;;;;;99.75;19.85;;;10.90;99.90;;;;;;5050263;28;20063;-72
2022/12/08 10:32:58;;;;;;;39.38;19.48;;;11.60;99.90;;;;;;5050574;28;20133;-72
2022/12/08 10:36:03;;;;;;;44.08;18.00;;;12.00;99.90;;;;;;5050970;28;20060;-71
2022/12/08 10:39:27;;;;;;;35.88;18.08;;;12.20;99.90;;;;;;5050618;28;20067;-71
2022/12/08 10:42:36;;;;;;;53.60;18.92;;;12.10;99.90;;;;;;5050247;28;20044;-71
2022/12/08 10:45:41;;;;;;;32.92;18.92;;;12.00;99.90;;;;;;5049887;28;20514;-71
2022/12/08 10:49:10;;;;;;;33.78;19.48;;;12.20;99.90;;;;;;5049369;28;20494;-72
2022/12/08 10:52:24;;;;;;;42.08;21.02;;;11.80;99.90;;;;;;5049803;28;20048;-72
2022/12/08 10:55:38;;;;;;;35.00;20.15;;;11.30;99.90;;;;;;5049588;28;20048;-72
2022/12/08 10:58:46;;;;;;;41.28;24.95;;;11.10;99.90;;;;;;5050135;28;20032;-72
2022/12/08 11:01:54;;;;;;;40.15;23.20;;;10.60;99.90;;;;;;5049781;28;20040;-72
2022/12/08 11:04:59;;;;;;;33.80;21.10;;;10.40;99.90;;;;;;5049491;28;20052;-71
2022/12/08 11:08:04;;;;;;;34.38;21.10;;;10.40;99.90;;;;;;5049586;28;20519;-72
2022/12/08 11:11:08;;;;;;;36.75;22.25;;;10.40;99.90;;;;;;5049703;28;20048;-72
2022/12/08 11:14:29;;;;;;;39.40;22.90;;;10.40;99.90;;;;;;5049293;28;20044;-71
2022/12/08 11:17:38;;;;;;;44.28;25.52;;;10.40;99.90;;;;;;5047763;28;20056;-72
2022/12/08 11:20:41;;;;;;;63.67;31.77;;;10.20;99.90;;;;;;5050747;28;20052;-72
2022/12/08 11:23:48;;;;;;;88.53;32.47;;;9.90;99.90;;;;;;5060495;28;20411;-72
2022/12/08 11:26:59;;;;;;;121.65;55.45;;;9.60;99.90;;;;;;5049649;28;20056;-72
2022/12/08 11:30:15;;;;;;;55.88;32.90;;;9.50;99.90;;;;;;5049870;28;20052;-72
2022/12/08 11:33:22;;;;;;;64.90;35.53;;;9.80;99.90;;;;;;5049262;28;20044;-72
2022/12/08 11:36:29;;;;;;;53.67;32.08;;;10.30;99.90;;;;;;5049328;28;20056;-72
2022/12/08 11:39:35;;;;;;;55.90;31.85;;;10.60;99.90;;;;;;5048937;28;20052;-72
2022/12/08 11:43:07;;;;;;;50.72;27.75;;;10.60;99.90;;;;;;5049749;28;20056;-72
2022/12/08 11:46:18;;;;;;;316.90;43.05;;;10.60;99.90;;;;;;5050087;28;20059;-72
2022/12/08 11:49:41;;;;;;;42.10;26.23;;;10.50;99.90;;;;;;5049859;28;20060;-71
2022/12/08 11:52:50;;;;;;;44.72;25.88;;;11.10;99.90;;;;;;5049287;28;20044;-72
2022/12/08 11:56:05;;;;;;;44.13;25.02;;;12.50;99.90;;;;;;5048615;28;20575;-72
2022/12/08 11:59:17;;;;;;;32.20;21.38;;;13.20;99.90;;;;;;5049920;28;20059;-72
2022/12/08 12:02:30;;;;;;;44.50;24.27;;;13.60;99.90;;;;;;5053219;28;20060;-72
2022/12/08 12:05:59;;;;;;;39.28;24.55;;;13.80;99.90;;;;;;5052973;28;20052;-72
2022/12/08 12:09:10;;;;;;;38.53;24.15;;;13.60;99.90;;;;;;5053073;28;20056;-71
2022/12/08 12:12:44;;;;;;;38.92;25.30;;;13.10;99.90;;;;;;5053028;28;20048;-71
2022/12/08 12:16:10;;;;;;;40.15;26.30;;;12.40;99.90;;;;;;5052592;28;20052;-71
2022/12/08 12:19:17;;;;;;;40.22;24.33;;;11.70;99.90;;;;;;5053043;28;20044;-72
2022/12/08 12:22:23;;;;;;;41.92;25.05;;;11.40;99.90;;;;;;5052811;28;20502;-72
2022/12/08 12:25:28;;;;;;;38.25;25.20;;;11.10;99.90;;;;;;5052390;28;20044;-72
2022/12/08 12:28:54;;;;;;;42.10;25.15;;;11.20;99.90;;;;;;5052685;28;20044;-72
2022/12/08 12:32:05;;;;;;;40.63;24.80;;;11.10;99.90;;;;;;5052671;28;20044;-71
2022/12/08 12:35:40;;;;;;;43.30;24.95;;;11.20;99.90;;;;;;5051204;28;20052;-71
2022/12/08 12:39:00;;;;;;;53.15;32.28;;;11.20;99.90;;;;;;5052433;28;20044;-72
2022/12/08 12:42:04;;;;;;;47.25;28.88;;;11.10;99.90;;;;;;5052165;28;20044;-72
2022/12/08 12:45:24;;;;;;;47.50;29.20;;;11.10;99.90;;;;;;5051884;28;20068;-72
2022/12/08 12:48:28;;;;;;;42.95;28.17;;;11.30;99.90;;;;;;5052152;28;20036;-72
2022/12/08 12:51:38;;;;;;;43.95;28.75;;;11.50;99.90;;;;;;5052424;28;20064;-72
2022/12/08 12:54:49;;;;;;;38.10;25.42;;;11.70;99.90;;;;;;5052008;28;20044;-72
2022/12/08 12:57:57;;;;;;;37.28;23.70;;;12.00;99.90;;;;;;5051329;28;20044;-72
2022/12/08 13:01:14;;;;;;;36.78;25.30;;;12.00;99.90;;;;;;5052056;28;20052;-72
2022/12/08 13:04:19;;;;;;;43.28;25.10;;;11.70;99.90;;;;;;5051498;28;20048;-72
2022/12/08 13:07:33;;;;;;;41.53;26.77;;;11.70;99.90;;;;;;5052107;28;20473;-72
2022/12/08 13:10:39;;;;;;;33.20;22.10;;;11.40;99.90;;;;;;5051366;28;20040;-72
2022/12/08 13:14:03;;;;;;;36.78;20.23;;;11.90;99.90;;;;;;5051422;28;20044;-72
2022/12/08 13:17:12;;;;;;;25.33;15.93;;;13.20;99.90;;;;;;5052041;28;20040;-72
2022/12/08 13:20:22;;;;;;;37.53;23.20;;;15.30;99.90;;;;;;5050689;28;20503;-72
2022/12/08 13:23:35;;;;;;;28.67;15.00;;;16.40;99.90;;;;;;5051211;28;20040;-72
2022/12/08 13:27:09;;;;;;;23.55;14.55;;;16.60;99.90;;;;;;5051613;28;20499;-72
2022/12/08 13:30:43;;;;;;;66.25;41.17;;;16.00;99.90;;;;;;5052001;28;20044;-72
2022/12/08 13:33:49;;;;;;;55.28;35.25;;;15.40;99.90;;;;;;5051234;28;20383;-72
2022/12/08 13:36:56;;;;;;;22.38;14.52;;;14.70;99.90;;;;;;5051778;28;20052;-73
2022/12/08 13:40:13;;;;;;;26.42;16.98;;;14.10;99.90;;;;;;5051847;28;20048;-72
2022/12/08 13:43:32;;;;;;;30.27;19.50;;;13.20;99.90;;;;;;5051200;28;20044;-72
2022/12/08 13:46:42;;;;;;;36.47;21.70;;;12.30;99.90;;;;;;5051471;28;20040;-72
2022/12/08 13:49:53;;;;;;;40.05;22.33;;;12.10;99.90;;;;;;5051183;28;20044;-72
2022/12/08 13:53:15;;;;;;;35.13;21.98;;;11.90;99.90;;;;;;5050926;28;20047;-72
2022/12/08 13:56:21;;;;;;;30.08;21.58;;;11.80;99.90;;;;;;5051572;28;20407;-72
2022/12/08 13:59:29;;;;;;;35.92;22.33;;;11.80;99.90;;;;;;5061906;28;20047;-72
2022/12/08 14:02:40;;;;;;;40.08;24.02;;;11.80;99.90;;;;;;5050953;28;20052;-72
2022/12/08 14:05:44;;;;;;;35.85;25.05;;;11.80;99.90;;;;;;5050941;28;20044;-71
2022/12/08 14:08:57;;;;;;;86.68;28.38;;;11.80;99.90;;;;;;5050786;28;20044;-71
2022/12/08 14:12:23;;;;;;;40.47;22.95;;;11.80;99.90;;;;;;5050806;28;20032;-72
2022/12/08 14:15:32;;;;;;;53.20;29.45;;;11.70;99.90;;;;;;5050358;28;20298;-72
2022/12/08 14:18:36;;;;;;;50.50;27.70;;;11.70;99.90;;;;;;5050889;28;20040;-72
2022/12/08 14:21:40;;;;;;;49.67;26.83;;;11.60;99.90;;;;;;5050864;28;20048;-72
2022/12/08 14:24:53;;;;;;;43.15;25.83;;;11.50;99.90;;;;;;5049896;28;20587;-72
2022/12/08 14:28:03;;;;;;;37.90;24.02;;;11.60;99.90;;;;;;5048543;28;20423;-71
2022/12/08 14:31:12;;;;;;;49.33;29.77;;;11.60;99.90;;;;;;5050885;28;20048;-72
2022/12/08 14:34:17;;;;;;;43.97;26.98;;;11.60;99.90;;;;;;5049391;28;20052;-72
2022/12/08 14:37:22;;;;;;;35.92;23.73;;;11.60;99.90;;;;;;5049863;28;20499;-72
2022/12/08 14:40:35;;;;;;;51.17;30.27;;;11.60;99.90;;;;;;5050425;28;20068;-72
2022/12/08 14:43:39;;;;;;;51.15;33.72;;;11.50;99.90;;;;;;5049663;28;20400;-72
2022/12/08 14:47:06;;;;;;;49.03;30.38;;;11.40;99.90;;;;;;5050471;28;20052;-71
2022/12/08 14:50:52;;;;;;;51.15;34.00;;;11.40;99.90;;;;;;5050484;28;20045;-72
2022/12/08 14:54:06;;;;;;;51.75;30.10;;;11.30;99.90;;;;;;5045546;28;20126;-72
2022/12/08 14:57:13;;;;;;;44.30;28.30;;;11.30;99.90;;;;;;5049826;28;20052;-72
2022/12/08 15:00:20;;;;;;;51.63;27.98;;;11.30;99.90;;;;;;5050945;28;20072;-72
2022/12/08 15:03:27;;;;;;;41.38;25.33;;;11.20;99.90;;;;;;5049927;28;20044;-72
2022/12/08 15:06:30;;;;;;;42.17;26.83;;;11.20;99.90;;;;;;5050348;28;20487;-71
2022/12/08 15:09:40;;;;;;;53.20;32.03;;;11.10;99.90;;;;;;5050005;28;20387;-72
2022/12/08 15:13:03;;;;;;;52.17;33.80;;;11.10;99.90;;;;;;5050292;28;20041;-71
2022/12/08 15:16:28;;;;;;;47.90;29.95;;;10.90;99.90;;;;;;5050063;28;20057;-72
2022/12/08 15:19:33;;;;;;;44.75;28.50;;;10.90;99.90;;;;;;5061089;28;20068;-72
2022/12/08 15:22:38;;;;;;;53.95;33.15;;;10.80;99.90;;;;;;5050354;28;20048;-71
2022/12/08 15:25:41;;;;;;;53.63;31.35;;;10.80;99.90;;;;;;5050299;28;20056;-72
2022/12/08 15:28:45;;;;;;;59.33;35.83;;;10.80;99.90;;;;;;5050044;28;20051;-72
2022/12/08 15:31:52;;;;;;;47.10;28.88;;;10.80;99.90;;;;;;5049982;28;20391;-71
2022/12/08 15:34:58;;;;;;;58.55;35.60;;;10.70;99.90;;;;;;5051456;28;20052;-72
2022/12/08 15:38:03;;;;;;;52.15;30.00;;;10.80;99.90;;;;;;5053984;28;20048;-72
2022/12/08 15:41:07;;;;;;;51.10;31.20;;;10.70;99.90;;;;;;5053794;28;20044;-71
2022/12/08 15:44:11;;;;;;;63.35;34.25;;;10.70;99.90;;;;;;5053460;28;20060;-71
2022/12/08 15:47:18;;;;;;;61.38;37.03;;;10.70;99.90;;;;;;5053726;28;20419;-72
2022/12/08 15:50:23;;;;;;;55.28;34.53;;;10.70;99.90;;;;;;5053917;28;20032;-72
2022/12/08 15:53:27;;;;;;;75.80;47.85;;;10.60;99.90;;;;;;5053249;28;20048;-72
2022/12/08 15:56:30;;;;;;;54.88;34.00;;;10.60;99.90;;;;;;5053624;28;20048;-72
2022/12/08 15:59:36;;;;;;;53.55;33.03;;;10.60;99.90;;;;;;5053454;28;20048;-71
2022/12/08 16:02:40;;;;;;;50.13;28.23;;;10.60;99.90;;;;;;5064201;28;20396;-72
2022/12/08 16:05:44;;;;;;;62.35;35.83;;;10.60;99.90;;;;;;5053032;28;20510;-72
2022/12/08 16:08:49;;;;;;;64.65;36.38;;;10.60;99.90;;;;;;5053410;28;20048;-72